DBBB/COO METAR and TAF weather

Enter ICAO airport designator
Station Type Date Time Source
DBBB METAR 2018/07/21 11:00 UTC NOAA

DBBB 211100Z 23009KT 9000 SCT011 SCT046 26/25 Q1014 TEMPO 3500 SHRA BKN012


Station Type Date Time Source
DBBB Decoded METAR 2018/07/21 11:00 UTC NOAA

Cotonou, Benin (DBBB) 06-21N 002-23E 9M
Jul 21, 2018 - 07:00 AM EDT / 2018.07.21 1100 UTC
Wind: from the SW (230 degrees) at 10 MPH (9 KT):0
Visibility: 5 mile(s):0
Sky conditions: partly cloudy
Temperature: 78 F (26 C)
Dew Point: 77 F (25 C)
Relative Humidity: 94%
Pressure (altimeter): 29.94 in. Hg (1014 hPa)
ob: DBBB 211100Z 23009KT 9000 SCT011 SCT046 26/25 Q1014 TEMPO 3500 SHRA BKN012
cycle: 11

Station Type Date Time Source
DBBB TAF 2018/07/21 12:09 UTC NOAA

TAF TAF DBBB 211100Z 2112/2218 22010KT 8000 SCT012
TEMPO 2112/2118 4000 SHRA BKN010 FEW023CB
BECMG 2202/2204 VRB02KT
BECMG 2208/2210 22010KT


Example: see airport list